createdAt,value
2022-12-11T00:00:58.996Z,99.99
2022-12-11T00:03:29.224Z,99.99
2022-12-11T00:05:57.291Z,99.99
2022-12-11T00:08:25.164Z,99.99
2022-12-11T00:10:52.996Z,99.99
2022-12-11T00:13:20.833Z,99.99
2022-12-11T00:15:48.792Z,99.99
2022-12-11T00:18:16.657Z,99.99
2022-12-11T00:20:44.726Z,99.99
2022-12-11T00:23:12.697Z,99.99
2022-12-11T00:25:45.233Z,99.99
2022-12-11T00:28:15.204Z,99.99
2022-12-11T00:30:43.376Z,99.99
2022-12-11T00:33:12.052Z,99.99
2022-12-11T00:35:41.382Z,99.99
2022-12-11T00:38:09.574Z,99.99
2022-12-11T00:40:37.972Z,99.99
2022-12-11T00:43:06.297Z,99.99
2022-12-11T00:45:43.762Z,99.99
2022-12-11T00:48:12.372Z,99.99
2022-12-11T00:50:40.568Z,99.99
2022-12-11T00:53:08.767Z,99.99
2022-12-11T00:55:41.677Z,99.99
2022-12-11T00:58:10.449Z,99.99
2022-12-11T01:00:39.384Z,99.99
2022-12-11T01:03:07.954Z,99.99
2022-12-11T01:05:36.099Z,99.99
2022-12-11T01:08:04.255Z,99.99
2022-12-11T01:10:33.116Z,99.99
2022-12-11T01:13:07.510Z,99.99
2022-12-11T01:15:41.790Z,99.99
2022-12-11T01:18:15.104Z,99.99
2022-12-11T01:20:43.836Z,99.99
2022-12-11T01:23:13.848Z,99.99
2022-12-11T01:25:42.448Z,99.99
2022-12-11T01:28:10.538Z,99.99
2022-12-11T01:30:40.532Z,99.99
2022-12-11T01:33:08.352Z,99.99
2022-12-11T01:35:36.414Z,99.99
2022-12-11T01:38:04.385Z,99.99
2022-12-11T01:40:32.763Z,99.99
2022-12-11T01:43:00.709Z,99.99
2022-12-11T01:45:45.307Z,99.99
2022-12-11T01:48:24.127Z,99.99
2022-12-11T01:51:04.534Z,99.99
2022-12-11T01:53:37.131Z,99.99
2022-12-11T01:56:06.444Z,99.99
2022-12-11T01:58:38.415Z,99.99
2022-12-11T02:01:06.403Z,99.99
2022-12-11T02:03:34.360Z,99.99
2022-12-11T02:06:03.157Z,99.99
2022-12-11T02:08:31.044Z,99.99
2022-12-11T02:11:20.801Z,99.99
2022-12-11T02:13:57.200Z,99.99
2022-12-11T02:16:48.444Z,99.99
2022-12-11T02:19:44.309Z,99.99
2022-12-11T02:22:22.440Z,99.99
2022-12-11T02:25:11.704Z,99.99
2022-12-11T02:28:23.000Z,99.99
2022-12-11T02:31:04.453Z,99.99
2022-12-11T02:33:43.953Z,99.99
2022-12-11T02:36:15.451Z,99.99
2022-12-11T02:38:50.557Z,99.99
2022-12-11T02:41:19.424Z,99.99
2022-12-11T02:43:49.232Z,99.99
2022-12-11T02:46:19.058Z,99.99
2022-12-11T02:48:50.083Z,99.99
2022-12-11T02:51:23.757Z,99.99
2022-12-11T02:53:54.471Z,99.99
2022-12-11T02:56:38.795Z,99.99
2022-12-11T02:59:20.495Z,99.99
2022-12-11T03:01:48.542Z,99.99
2022-12-11T03:04:16.576Z,99.99
2022-12-11T03:06:50.101Z,99.99
2022-12-11T03:09:17.957Z,99.99
2022-12-11T03:11:46.349Z,99.99
2022-12-11T03:14:14.535Z,99.99
2022-12-11T03:17:05.039Z,99.99
2022-12-11T03:19:41.459Z,99.99
2022-12-11T03:22:15.573Z,99.99
2022-12-11T03:24:49.214Z,99.99
2022-12-11T03:27:33.144Z,99.99
2022-12-11T03:30:11.708Z,99.99
2022-12-11T03:32:51.140Z,99.99
2022-12-11T03:35:30.966Z,99.99
2022-12-11T03:38:03.687Z,99.99
2022-12-11T03:40:35.537Z,99.99
2022-12-11T03:43:04.867Z,99.99
2022-12-11T03:45:34.453Z,99.99
2022-12-11T03:48:03.541Z,99.99
2022-12-11T03:50:34.030Z,99.99
2022-12-11T03:53:03.267Z,99.99
2022-12-11T03:55:32.768Z,99.99
2022-12-11T03:58:00.677Z,99.99
2022-12-11T04:00:28.953Z,99.99
2022-12-11T04:03:16.082Z,99.99
2022-12-11T04:05:51.944Z,99.99
2022-12-11T04:08:21.878Z,99.99
2022-12-11T04:11:13.229Z,99.99
2022-12-11T04:13:41.943Z,99.99
2022-12-11T04:16:09.921Z,99.99
2022-12-11T04:18:56.486Z,99.99
2022-12-11T04:21:43.011Z,99.99
2022-12-11T04:24:16.869Z,99.99
2022-12-11T04:26:46.653Z,99.99
2022-12-11T04:29:15.388Z,99.99
2022-12-11T04:31:43.274Z,99.99
2022-12-11T04:34:11.135Z,99.99
2022-12-11T04:36:39.294Z,99.99
2022-12-11T04:39:07.279Z,99.99
2022-12-11T04:41:35.814Z,99.99
2022-12-11T04:44:03.912Z,99.99
2022-12-11T04:46:33.302Z,99.99
2022-12-11T04:49:01.296Z,99.99
2022-12-11T04:51:29.663Z,99.99
2022-12-11T04:53:59.388Z,99.99
2022-12-11T04:56:27.291Z,99.99
2022-12-11T04:58:55.086Z,99.99
2022-12-11T05:01:23.524Z,99.99
2022-12-11T05:03:51.437Z,99.99
2022-12-11T05:06:19.378Z,99.99
2022-12-11T05:08:47.327Z,99.99
2022-12-11T05:11:16.284Z,99.99
2022-12-11T05:13:44.774Z,99.99
2022-12-11T05:16:17.729Z,99.99
2022-12-11T05:18:47.328Z,99.99
2022-12-11T05:21:15.754Z,99.99
2022-12-11T05:23:43.627Z,99.99
2022-12-11T05:26:18.375Z,99.99
2022-12-11T05:28:46.961Z,99.99
2022-12-11T05:31:17.627Z,99.99
2022-12-11T05:33:46.959Z,99.99
2022-12-11T05:36:24.993Z,99.99
2022-12-11T05:38:53.892Z,99.99
2022-12-11T05:41:26.139Z,99.99
2022-12-11T05:43:54.123Z,99.99
2022-12-11T05:46:28.044Z,99.99
2022-12-11T05:48:58.683Z,99.99
2022-12-11T05:51:27.262Z,99.99
2022-12-11T05:53:56.454Z,99.99
2022-12-11T05:56:29.619Z,99.99
2022-12-11T05:58:58.936Z,99.99
2022-12-11T06:01:39.275Z,99.99
2022-12-11T06:04:10.028Z,99.99
2022-12-11T06:06:38.285Z,99.99
2022-12-11T06:09:06.681Z,99.99
2022-12-11T06:11:35.748Z,99.99
2022-12-11T06:14:04.112Z,99.99
2022-12-11T06:16:32.658Z,99.99
2022-12-11T06:19:00.556Z,99.99
2022-12-11T06:21:31.018Z,99.99
2022-12-11T06:24:01.148Z,99.99
2022-12-11T06:26:29.778Z,99.99
2022-12-11T06:28:57.654Z,99.99
2022-12-11T06:31:25.571Z,99.99
2022-12-11T06:33:56.512Z,99.99
2022-12-11T06:36:25.286Z,99.99
2022-12-11T06:38:55.291Z,99.99
2022-12-11T06:41:23.156Z,99.99
2022-12-11T06:43:51.005Z,99.99
2022-12-11T06:46:20.896Z,99.99
2022-12-11T06:48:52.049Z,99.99
2022-12-11T06:51:22.272Z,99.97
2022-12-11T06:53:55.120Z,99.95
2022-12-11T06:56:23.692Z,99.84
2022-12-11T06:58:52.322Z,99.99
2022-12-11T07:01:21.530Z,99.82
2022-12-11T07:03:49.567Z,99.54
2022-12-11T07:06:17.405Z,99.55
2022-12-11T07:08:45.554Z,99.19
2022-12-11T07:11:15.203Z,99.36
2022-12-11T07:13:45.924Z,99.19
2022-12-11T07:16:15.608Z,99.09
2022-12-11T07:18:48.038Z,99.18
2022-12-11T07:21:15.918Z,99.21
2022-12-11T07:23:44.246Z,99.10
2022-12-11T07:26:16.597Z,99.12
2022-12-11T07:28:44.935Z,99.28
2022-12-11T07:31:18.758Z,99.43
2022-12-11T07:33:47.463Z,99.32
2022-12-11T07:36:16.267Z,99.14
2022-12-11T07:38:44.932Z,99.23
2022-12-11T07:41:15.105Z,99.03
2022-12-11T07:43:43.731Z,98.99
2022-12-11T07:46:20.803Z,98.64
2022-12-11T07:48:49.432Z,98.86
2022-12-11T07:51:27.788Z,98.75
2022-12-11T07:54:01.363Z,98.89
2022-12-11T07:56:30.493Z,98.76
2022-12-11T07:59:04.766Z,98.63
2022-12-11T08:01:37.949Z,98.51
2022-12-11T08:04:09.299Z,98.59
2022-12-11T08:06:39.747Z,98.81
2022-12-11T08:09:11.310Z,98.93
2022-12-11T08:11:41.452Z,98.78
2022-12-11T08:14:09.534Z,98.70
2022-12-11T08:16:38.010Z,98.87
2022-12-11T08:19:06.018Z,98.74
2022-12-11T08:21:34.022Z,98.48
2022-12-11T08:24:01.988Z,98.29
2022-12-11T08:26:34.050Z,98.26
2022-12-11T08:29:03.018Z,97.79
2022-12-11T08:31:31.436Z,97.64
2022-12-11T08:33:59.496Z,97.49
2022-12-11T08:36:27.460Z,97.41
2022-12-11T08:38:56.413Z,97.34
2022-12-11T08:41:30.070Z,96.87
2022-12-11T08:44:00.417Z,96.70
2022-12-11T08:46:30.841Z,96.73
2022-12-11T08:48:59.551Z,96.65
2022-12-11T08:51:29.093Z,96.95
2022-12-11T08:54:01.086Z,96.71
2022-12-11T08:56:29.577Z,96.55
2022-12-11T08:59:01.110Z,96.69
2022-12-11T09:01:29.727Z,96.59
2022-12-11T09:03:58.288Z,96.54
2022-12-11T09:06:30.278Z,96.68
2022-12-11T09:09:00.682Z,96.49
2022-12-11T09:11:31.709Z,96.04
2022-12-11T09:14:05.191Z,96.00
2022-12-11T09:16:39.736Z,95.82
2022-12-11T09:19:12.870Z,95.97
2022-12-11T09:21:42.919Z,96.17
2022-12-11T09:24:12.379Z,96.32
2022-12-11T09:26:40.915Z,96.71
2022-12-11T09:29:10.626Z,96.79
2022-12-11T09:31:38.899Z,97.11
2022-12-11T09:34:09.425Z,96.87
2022-12-11T09:36:40.027Z,96.88
2022-12-11T09:39:09.093Z,96.49
2022-12-11T09:41:38.465Z,96.29
2022-12-11T09:44:20.683Z,96.27
2022-12-11T09:46:50.929Z,95.67
2022-12-11T09:49:21.605Z,95.79
2022-12-11T09:52:10.637Z,95.83
2022-12-11T09:54:49.611Z,95.90
2022-12-11T09:57:42.850Z,96.13
2022-12-11T10:00:29.948Z,96.14
2022-12-11T10:03:03.745Z,96.11
2022-12-11T10:05:50.052Z,96.46
2022-12-11T10:08:23.267Z,96.41
2022-12-11T10:11:26.616Z,96.26
2022-12-11T10:14:31.917Z,96.64
2022-12-11T10:17:17.391Z,96.46
2022-12-11T10:19:46.033Z,96.81
2022-12-11T10:22:26.021Z,96.40
2022-12-11T10:25:23.352Z,96.08
2022-12-11T10:27:51.460Z,95.59
2022-12-11T10:30:25.455Z,95.18
2022-12-11T10:33:12.815Z,94.06
2022-12-11T10:35:47.458Z,94.16
2022-12-11T10:38:21.235Z,94.46
2022-12-11T10:40:58.814Z,94.06
2022-12-11T10:43:38.212Z,93.74
2022-12-11T10:46:14.348Z,94.43
2022-12-11T10:48:55.858Z,94.40
2022-12-11T10:51:28.394Z,94.51
2022-12-11T10:54:06.903Z,94.53
2022-12-11T10:56:38.059Z,94.32
2022-12-11T10:59:06.540Z,94.48
2022-12-11T11:01:34.725Z,94.38
2022-12-11T11:04:20.409Z,93.95
2022-12-11T11:06:49.794Z,93.71
2022-12-11T11:09:35.415Z,93.85
2022-12-11T11:12:07.928Z,94.35
2022-12-11T11:14:36.084Z,93.77
2022-12-11T11:17:04.070Z,93.65
2022-12-11T11:19:34.894Z,94.06
2022-12-11T11:22:06.927Z,93.52
2022-12-11T11:24:44.845Z,93.98
2022-12-11T11:27:22.815Z,93.73
2022-12-11T11:29:57.452Z,93.71
2022-12-11T11:32:36.593Z,93.92
2022-12-11T11:35:26.130Z,93.61
2022-12-11T11:38:15.918Z,93.77
2022-12-11T11:40:57.049Z,93.31
2022-12-11T11:43:46.593Z,92.80
2022-12-11T11:46:26.043Z,93.42
2022-12-11T11:49:15.712Z,93.68
2022-12-11T11:51:49.012Z,93.66
2022-12-11T11:54:32.110Z,93.00
2022-12-11T11:57:05.025Z,93.56
2022-12-11T11:59:42.689Z,93.18
2022-12-11T12:02:16.550Z,93.26
2022-12-11T12:04:46.941Z,92.68
2022-12-11T12:07:47.086Z,92.75
2022-12-11T12:10:26.790Z,92.41
2022-12-11T12:13:30.142Z,92.23
2022-12-11T12:16:01.316Z,92.61
2022-12-11T12:19:00.049Z,92.98
2022-12-11T12:21:42.277Z,92.99
2022-12-11T12:24:47.888Z,92.82
2022-12-11T12:27:43.692Z,92.76
2022-12-11T12:30:14.062Z,92.73
2022-12-11T12:33:09.228Z,93.08
2022-12-11T12:35:44.683Z,92.89
2022-12-11T12:38:15.512Z,92.60
2022-12-11T12:41:14.028Z,92.61
2022-12-11T12:43:59.761Z,92.97
2022-12-11T12:46:42.751Z,92.88
2022-12-11T12:49:19.877Z,93.26
2022-12-11T12:51:48.668Z,92.99
2022-12-11T12:54:19.140Z,93.50
2022-12-11T12:56:51.209Z,93.37
2022-12-11T12:59:25.368Z,93.64
2022-12-11T13:02:00.112Z,93.18
2022-12-11T13:04:56.689Z,93.29
2022-12-11T13:07:30.053Z,93.53
2022-12-11T13:10:29.967Z,93.71
2022-12-11T13:12:58.681Z,93.65
2022-12-11T13:15:28.365Z,93.81
2022-12-11T13:17:57.566Z,93.85
2022-12-11T13:20:28.690Z,94.04
2022-12-11T13:23:17.463Z,93.69
2022-12-11T13:26:05.596Z,93.64
2022-12-11T13:28:39.356Z,93.64
2022-12-11T13:31:16.213Z,93.64
2022-12-11T13:33:50.928Z,93.83
2022-12-11T13:36:24.145Z,94.12
2022-12-11T13:39:18.528Z,94.30
2022-12-11T13:41:51.607Z,94.49
2022-12-11T13:44:27.523Z,94.11
2022-12-11T13:46:58.396Z,94.41
2022-12-11T13:49:39.852Z,94.01
2022-12-11T13:52:15.870Z,93.98
2022-12-11T13:54:51.142Z,94.29
2022-12-11T13:57:21.100Z,94.29
2022-12-11T13:59:53.147Z,94.27
2022-12-11T14:02:34.879Z,94.13
2022-12-11T14:05:09.359Z,94.52
2022-12-11T14:07:49.863Z,94.54
2022-12-11T14:10:22.154Z,94.54
2022-12-11T14:12:56.507Z,94.28
2022-12-11T14:15:25.055Z,94.36
2022-12-11T14:17:53.293Z,94.51
2022-12-11T14:20:24.988Z,94.61
2022-12-11T14:22:52.786Z,94.79
2022-12-11T14:25:27.674Z,94.54
2022-12-11T14:27:56.765Z,94.40
2022-12-11T14:30:28.430Z,94.49
2022-12-11T14:33:01.145Z,94.72
2022-12-11T14:35:40.064Z,95.14
2022-12-11T14:38:19.764Z,95.14
2022-12-11T14:40:53.695Z,95.27
2022-12-11T14:43:29.237Z,94.94
2022-12-11T14:46:06.821Z,95.11
2022-12-11T14:48:44.229Z,95.24
2022-12-11T14:51:16.977Z,95.18
2022-12-11T14:53:50.855Z,95.22
2022-12-11T14:56:24.386Z,95.48
2022-12-11T14:59:01.223Z,95.56
2022-12-11T15:01:32.507Z,95.57
2022-12-11T15:04:15.803Z,95.64
2022-12-11T15:06:46.926Z,95.98
2022-12-11T15:09:49.832Z,95.79
2022-12-11T15:12:19.616Z,95.70
2022-12-11T15:14:54.531Z,96.03
2022-12-11T15:17:24.346Z,96.09
2022-12-11T15:20:10.744Z,96.17
2022-12-11T15:22:42.799Z,96.18
2022-12-11T15:25:22.607Z,96.05
2022-12-11T15:27:56.057Z,96.29
2022-12-11T15:30:27.737Z,96.35
2022-12-11T15:33:10.948Z,96.29
2022-12-11T15:35:50.935Z,96.03
2022-12-11T15:38:29.407Z,95.97
2022-12-11T15:40:58.113Z,95.82
2022-12-11T15:43:27.150Z,95.72
2022-12-11T15:45:55.237Z,95.77
2022-12-11T15:48:23.264Z,95.87
2022-12-11T15:50:51.139Z,95.92
2022-12-11T15:53:19.517Z,95.86
2022-12-11T15:55:48.355Z,96.04
2022-12-11T15:58:23.245Z,96.26
2022-12-11T16:00:51.581Z,96.29
2022-12-11T16:03:21.487Z,96.39
2022-12-11T16:05:53.190Z,96.41
2022-12-11T16:08:23.582Z,96.42
2022-12-11T16:10:54.504Z,96.46
2022-12-11T16:13:23.243Z,96.48
2022-12-11T16:15:52.131Z,96.18
2022-12-11T16:18:23.207Z,96.35
2022-12-11T16:20:52.210Z,96.29
2022-12-11T16:23:20.330Z,96.37
2022-12-11T16:25:48.478Z,96.46
2022-12-11T16:28:20.609Z,96.34
2022-12-11T16:30:49.565Z,96.33
2022-12-11T16:33:17.425Z,96.34
2022-12-11T16:35:45.237Z,96.40
2022-12-11T16:38:13.526Z,96.44
2022-12-11T16:40:41.602Z,96.38
2022-12-11T16:43:10.851Z,96.32
2022-12-11T16:45:38.769Z,96.26
2022-12-11T16:48:06.937Z,96.18
2022-12-11T16:50:36.154Z,96.34
2022-12-11T16:53:04.195Z,96.25
2022-12-11T16:55:32.151Z,96.32
2022-12-11T16:57:59.939Z,96.44
2022-12-11T17:00:27.854Z,96.37
2022-12-11T17:02:56.041Z,96.41
2022-12-11T17:05:24.907Z,96.29
2022-12-11T17:07:52.860Z,96.02
2022-12-11T17:10:20.897Z,96.24
2022-12-11T17:12:48.728Z,96.41
2022-12-11T17:15:16.817Z,96.10
2022-12-11T17:17:44.695Z,96.24
2022-12-11T17:20:12.737Z,95.98
2022-12-11T17:22:40.764Z,96.05
2022-12-11T17:25:09.252Z,96.01
2022-12-11T17:27:37.294Z,95.90
2022-12-11T17:30:05.633Z,96.16
2022-12-11T17:32:33.538Z,96.13
2022-12-11T17:35:01.635Z,96.45
2022-12-11T17:37:30.618Z,96.38
2022-12-11T17:39:58.748Z,96.12
2022-12-11T17:42:26.652Z,96.19
2022-12-11T17:44:54.599Z,96.15
2022-12-11T17:47:22.603Z,96.41
2022-12-11T17:49:50.638Z,96.60
2022-12-11T17:52:18.893Z,96.48
2022-12-11T17:54:46.944Z,96.46
2022-12-11T17:57:14.954Z,96.43
2022-12-11T17:59:42.891Z,96.26
2022-12-11T18:02:11.043Z,96.24
2022-12-11T18:04:39.928Z,96.34
2022-12-11T18:07:07.807Z,96.26
2022-12-11T18:09:35.788Z,96.62
2022-12-11T18:12:03.804Z,96.56
2022-12-11T18:14:31.685Z,96.48
2022-12-11T18:17:00.127Z,96.49
2022-12-11T18:19:28.071Z,96.26
2022-12-11T18:21:56.313Z,96.14
2022-12-11T18:24:31.628Z,96.08
2022-12-11T18:26:59.974Z,96.16
2022-12-11T18:29:28.013Z,96.08
2022-12-11T18:31:56.401Z,96.18
2022-12-11T18:34:24.414Z,96.10
2022-12-11T18:36:52.324Z,96.20
2022-12-11T18:39:20.204Z,96.00
2022-12-11T18:42:03.462Z,96.22
2022-12-11T18:44:36.007Z,96.46
2022-12-11T18:47:04.554Z,96.38
2022-12-11T18:49:32.446Z,96.44
2022-12-11T18:52:00.211Z,96.35
2022-12-11T18:54:28.191Z,96.39
2022-12-11T18:56:56.232Z,96.32
2022-12-11T18:59:24.130Z,96.45
2022-12-11T19:01:52.129Z,96.23
2022-12-11T19:04:20.068Z,96.48
2022-12-11T19:06:48.026Z,96.43
2022-12-11T19:09:15.985Z,96.60
2022-12-11T19:11:44.096Z,96.60
2022-12-11T19:14:12.324Z,96.45
2022-12-11T19:16:44.022Z,96.45
2022-12-11T19:19:21.243Z,96.70
2022-12-11T19:21:50.320Z,96.58
2022-12-11T19:24:23.477Z,96.47
2022-12-11T19:26:51.864Z,96.53
2022-12-11T19:29:33.523Z,96.49
2022-12-11T19:32:05.147Z,96.56
2022-12-11T19:34:33.051Z,96.35
2022-12-11T19:37:01.028Z,96.32
2022-12-11T19:39:29.325Z,96.55
2022-12-11T19:41:57.258Z,96.38
2022-12-11T19:44:25.407Z,96.35
2022-12-11T19:46:53.401Z,96.42
2022-12-11T19:49:21.615Z,96.44
2022-12-11T19:51:49.800Z,96.40
2022-12-11T19:54:18.892Z,96.29
2022-12-11T19:56:47.046Z,96.40
2022-12-11T19:59:17.656Z,96.36
2022-12-11T20:01:48.139Z,96.29
2022-12-11T20:04:17.611Z,96.41
2022-12-11T20:06:46.840Z,96.39
2022-12-11T20:09:15.433Z,96.47
2022-12-11T20:11:44.845Z,96.65
2022-12-11T20:14:25.035Z,96.24
2022-12-11T20:17:10.929Z,96.32
2022-12-11T20:19:40.878Z,96.17
2022-12-11T20:22:10.649Z,96.15
2022-12-11T20:24:38.681Z,96.19
2022-12-11T20:27:06.723Z,96.20
2022-12-11T20:29:34.805Z,95.95
2022-12-11T20:32:03.036Z,96.08
2022-12-11T20:34:31.276Z,96.26
2022-12-11T20:37:00.401Z,96.36
2022-12-11T20:39:29.267Z,96.49
2022-12-11T20:41:57.378Z,96.37
2022-12-11T20:44:25.303Z,96.57
2022-12-11T20:46:53.191Z,96.34
2022-12-11T20:49:22.402Z,96.04
2022-12-11T20:51:50.258Z,96.07
2022-12-11T20:54:18.333Z,96.12
2022-12-11T20:56:46.485Z,96.15
2022-12-11T20:59:14.450Z,96.27
2022-12-11T21:01:42.432Z,96.04
2022-12-11T21:04:10.726Z,96.24
2022-12-11T21:06:40.599Z,96.09
2022-12-11T21:09:14.243Z,95.98
2022-12-11T21:11:42.373Z,96.27
2022-12-11T21:14:10.449Z,96.13
2022-12-11T21:16:38.833Z,96.35
2022-12-11T21:19:10.130Z,96.24
2022-12-11T21:21:40.337Z,96.37
2022-12-11T21:24:13.756Z,96.06
2022-12-11T21:26:42.038Z,95.83
2022-12-11T21:29:10.803Z,95.94
2022-12-11T21:31:39.048Z,95.87
2022-12-11T21:34:07.955Z,95.70
2022-12-11T21:36:36.434Z,95.76
2022-12-11T21:39:05.143Z,95.74
2022-12-11T21:41:33.276Z,95.36
2022-12-11T21:46:49.166Z,95.54
2022-12-11T21:49:17.262Z,95.58
2022-12-11T21:51:47.395Z,95.72
2022-12-11T21:54:18.077Z,95.43
2022-12-11T21:56:46.808Z,95.25
2022-12-11T21:59:15.092Z,95.21
2022-12-11T22:01:45.805Z,95.39
2022-12-11T22:04:14.868Z,95.27
2022-12-11T22:06:43.426Z,95.58
2022-12-11T22:09:12.984Z,95.47
2022-12-11T22:11:42.337Z,95.45
2022-12-11T22:14:14.569Z,95.38
2022-12-11T22:16:43.082Z,95.54
2022-12-11T22:19:11.927Z,95.72
2022-12-11T22:21:40.221Z,95.70
2022-12-11T22:24:08.216Z,95.89
2022-12-11T22:26:36.021Z,95.87
2022-12-11T22:29:04.046Z,95.55
2022-12-11T22:31:32.175Z,95.58
2022-12-11T22:34:00.091Z,95.64
2022-12-11T22:36:28.334Z,95.62
2022-12-11T22:38:56.282Z,95.91
2022-12-11T22:41:28.147Z,95.38
2022-12-11T22:43:58.059Z,95.16
2022-12-11T22:46:28.275Z,95.42
2022-12-11T22:48:57.526Z,95.49
2022-12-11T22:51:25.474Z,95.19
2022-12-11T22:53:53.255Z,95.40
2022-12-11T22:56:21.134Z,95.12
2022-12-11T22:58:48.919Z,95.05
2022-12-11T23:01:21.723Z,94.65
2022-12-11T23:03:49.969Z,94.88
2022-12-11T23:06:22.031Z,95.00
2022-12-11T23:08:50.003Z,95.24
2022-12-11T23:11:24.701Z,95.07
2022-12-11T23:13:53.233Z,95.21
2022-12-11T23:16:22.427Z,94.91
2022-12-11T23:18:50.699Z,94.52
2022-12-11T23:21:18.838Z,94.44
2022-12-11T23:23:46.624Z,94.77
2022-12-11T23:26:18.573Z,95.00
2022-12-11T23:28:46.958Z,94.72
2022-12-11T23:31:16.272Z,94.95
2022-12-11T23:33:44.676Z,95.07
2022-12-11T23:36:13.378Z,95.42
2022-12-11T23:38:42.196Z,95.43
2022-12-11T23:41:12.456Z,95.77
2022-12-11T23:43:40.505Z,95.76
2022-12-11T23:46:13.973Z,95.62
2022-12-11T23:48:42.359Z,95.50
2022-12-11T23:51:13.015Z,95.94
2022-12-11T23:53:41.295Z,95.77
2022-12-11T23:56:18.190Z,95.84
2022-12-11T23:58:46.437Z,95.71
